sensor_id;sensor_type;location;lat;lon;timestamp;temperature;humidity
31207;DHT22;17834;52.992;8.856;2023-04-25T00:01:55;7.60;99.90
31207;DHT22;17834;52.992;8.856;2023-04-25T00:04:22;7.40;99.90
31207;DHT22;17834;52.992;8.856;2023-04-25T00:06:47;7.20;99.90
31207;DHT22;17834;52.992;8.856;2023-04-25T00:09:13;7.10;99.90
31207;DHT22;17834;52.992;8.856;2023-04-25T00:11:40;7.00;99.90
31207;DHT22;17834;52.992;8.856;2023-04-25T00:14:05;6.90;99.90
31207;DHT22;17834;52.992;8.856;2023-04-25T00:16:31;6.80;99.90
31207;DHT22;17834;52.992;8.856;2023-04-25T00:18:59;6.70;99.90
31207;DHT22;17834;52.992;8.856;2023-04-25T00:21:25;6.80;99.90
31207;DHT22;17834;52.992;8.856;2023-04-25T00:23:54;6.70;99.90
31207;DHT22;17834;52.992;8.856;2023-04-25T00:26:20;6.70;99.90
31207;DHT22;17834;52.992;8.856;2023-04-25T00:28:46;6.70;99.90
31207;DHT22;17834;52.992;8.856;2023-04-25T00:31:12;6.70;99.90
31207;DHT22;17834;52.992;8.856;2023-04-25T00:33:38;6.60;99.90
31207;DHT22;17834;52.992;8.856;2023-04-25T00:36:03;6.60;99.90
31207;DHT22;17834;52.992;8.856;2023-04-25T00:38:29;6.60;99.90
31207;DHT22;17834;52.992;8.856;2023-04-25T00:40:54;6.60;99.90
31207;DHT22;17834;52.992;8.856;2023-04-25T00:43:21;6.50;99.90
31207;DHT22;17834;52.992;8.856;2023-04-25T00:45:47;6.60;99.90
31207;DHT22;17834;52.992;8.856;2023-04-25T00:48:14;6.60;99.90
31207;DHT22;17834;52.992;8.856;2023-04-25T00:50:40;6.60;99.90
31207;DHT22;17834;52.992;8.856;2023-04-25T00:53:06;6.50;99.90
31207;DHT22;17834;52.992;8.856;2023-04-25T00:55:32;6.60;99.90
31207;DHT22;17834;52.992;8.856;2023-04-25T00:57:59;6.50;99.90
31207;DHT22;17834;52.992;8.856;2023-04-25T01:00:25;6.60;99.90
31207;DHT22;17834;52.992;8.856;2023-04-25T01:02:51;6.50;99.90
31207;DHT22;17834;52.992;8.856;2023-04-25T01:05:17;6.30;99.90
31207;DHT22;17834;52.992;8.856;2023-04-25T01:07:44;6.40;99.90
31207;DHT22;17834;52.992;8.856;2023-04-25T01:10:10;6.40;99.90
31207;DHT22;17834;52.992;8.856;2023-04-25T01:12:36;6.30;99.90
31207;DHT22;17834;52.992;8.856;2023-04-25T01:15:02;6.30;99.90
31207;DHT22;17834;52.992;8.856;2023-04-25T01:17:28;6.30;99.90
31207;DHT22;17834;52.992;8.856;2023-04-25T01:19:54;6.30;99.90
31207;DHT22;17834;52.992;8.856;2023-04-25T01:22:20;6.20;99.90
31207;DHT22;17834;52.992;8.856;2023-04-25T01:24:46;6.10;99.90
31207;DHT22;17834;52.992;8.856;2023-04-25T01:27:12;6.10;99.90
31207;DHT22;17834;52.992;8.856;2023-04-25T01:29:38;6.10;99.90
31207;DHT22;17834;52.992;8.856;2023-04-25T01:32:05;6.10;99.90
31207;DHT22;17834;52.992;8.856;2023-04-25T01:34:31;6.00;99.90
31207;DHT22;17834;52.992;8.856;2023-04-25T01:36:56;6.00;99.90
31207;DHT22;17834;52.992;8.856;2023-04-25T01:39:24;6.00;99.90
31207;DHT22;17834;52.992;8.856;2023-04-25T01:41:50;6.00;99.90
31207;DHT22;17834;52.992;8.856;2023-04-25T01:44:16;6.00;99.90
31207;DHT22;17834;52.992;8.856;2023-04-25T01:46:41;6.00;99.90
31207;DHT22;17834;52.992;8.856;2023-04-25T01:49:07;5.90;99.90
31207;DHT22;17834;52.992;8.856;2023-04-25T01:51:33;5.90;99.90
31207;DHT22;17834;52.992;8.856;2023-04-25T01:53:59;5.90;99.90
31207;DHT22;17834;52.992;8.856;2023-04-25T01:56:25;6.00;99.90
31207;DHT22;17834;52.992;8.856;2023-04-25T01:58:51;5.90;99.90
31207;DHT22;17834;52.992;8.856;2023-04-25T02:01:17;5.90;99.90
31207;DHT22;17834;52.992;8.856;2023-04-25T02:03:43;6.00;99.90
31207;DHT22;17834;52.992;8.856;2023-04-25T02:06:08;5.90;99.90
31207;DHT22;17834;52.992;8.856;2023-04-25T02:08:34;5.90;99.90
31207;DHT22;17834;52.992;8.856;2023-04-25T02:11:00;5.90;99.90
31207;DHT22;17834;52.992;8.856;2023-04-25T02:13:26;5.90;99.90
31207;DHT22;17834;52.992;8.856;2023-04-25T02:15:51;5.90;99.90
31207;DHT22;17834;52.992;8.856;2023-04-25T02:18:17;5.90;99.90
31207;DHT22;17834;52.992;8.856;2023-04-25T02:20:43;6.00;99.90
31207;DHT22;17834;52.992;8.856;2023-04-25T02:23:09;6.00;99.90
31207;DHT22;17834;52.992;8.856;2023-04-25T02:25:35;6.00;99.90
31207;DHT22;17834;52.992;8.856;2023-04-25T02:28:00;5.90;99.90
31207;DHT22;17834;52.992;8.856;2023-04-25T02:30:26;5.90;99.90
31207;DHT22;17834;52.992;8.856;2023-04-25T02:32:51;5.80;99.90
31207;DHT22;17834;52.992;8.856;2023-04-25T02:35:17;5.80;99.90
31207;DHT22;17834;52.992;8.856;2023-04-25T02:37:43;5.70;99.90
31207;DHT22;17834;52.992;8.856;2023-04-25T02:40:09;5.70;99.90
31207;DHT22;17834;52.992;8.856;2023-04-25T02:42:34;5.60;99.90
31207;DHT22;17834;52.992;8.856;2023-04-25T02:45:00;5.50;99.90
31207;DHT22;17834;52.992;8.856;2023-04-25T02:47:26;5.50;99.90
31207;DHT22;17834;52.992;8.856;2023-04-25T02:49:51;5.50;99.90
31207;DHT22;17834;52.992;8.856;2023-04-25T02:52:17;5.50;99.90
31207;DHT22;17834;52.992;8.856;2023-04-25T02:54:43;5.40;99.90
31207;DHT22;17834;52.992;8.856;2023-04-25T02:57:09;5.40;99.90
31207;DHT22;17834;52.992;8.856;2023-04-25T02:59:34;5.40;99.90
31207;DHT22;17834;52.992;8.856;2023-04-25T03:02:00;5.40;99.90
31207;DHT22;17834;52.992;8.856;2023-04-25T03:04:26;5.30;99.90
31207;DHT22;17834;52.992;8.856;2023-04-25T03:06:52;5.30;99.90
31207;DHT22;17834;52.992;8.856;2023-04-25T03:09:18;5.30;99.90
31207;DHT22;17834;52.992;8.856;2023-04-25T03:11:44;5.20;99.90
31207;DHT22;17834;52.992;8.856;2023-04-25T03:14:10;5.20;99.90
31207;DHT22;17834;52.992;8.856;2023-04-25T03:16:36;5.20;99.90
31207;DHT22;17834;52.992;8.856;2023-04-25T03:19:02;5.20;99.90
31207;DHT22;17834;52.992;8.856;2023-04-25T03:21:28;5.40;99.90
31207;DHT22;17834;52.992;8.856;2023-04-25T03:23:53;5.30;99.90
31207;DHT22;17834;52.992;8.856;2023-04-25T03:26:19;5.40;99.90
31207;DHT22;17834;52.992;8.856;2023-04-25T03:28:45;5.40;99.90
31207;DHT22;17834;52.992;8.856;2023-04-25T03:31:10;5.40;99.90
31207;DHT22;17834;52.992;8.856;2023-04-25T03:33:36;5.40;99.90
31207;DHT22;17834;52.992;8.856;2023-04-25T03:36:01;5.40;99.90
31207;DHT22;17834;52.992;8.856;2023-04-25T03:38:27;5.50;99.90
31207;DHT22;17834;52.992;8.856;2023-04-25T03:40:53;5.50;99.90
31207;DHT22;17834;52.992;8.856;2023-04-25T03:43:19;5.50;99.90
31207;DHT22;17834;52.992;8.856;2023-04-25T03:45:45;5.50;99.90
31207;DHT22;17834;52.992;8.856;2023-04-25T03:48:11;5.50;99.90
31207;DHT22;17834;52.992;8.856;2023-04-25T03:50:36;5.50;99.90
31207;DHT22;17834;52.992;8.856;2023-04-25T03:53:02;5.50;99.90
31207;DHT22;17834;52.992;8.856;2023-04-25T03:55:27;5.40;99.90
31207;DHT22;17834;52.992;8.856;2023-04-25T03:57:53;5.40;99.90
31207;DHT22;17834;52.992;8.856;2023-04-25T04:00:18;5.40;99.90
31207;DHT22;17834;52.992;8.856;2023-04-25T04:02:44;5.40;99.90
31207;DHT22;17834;52.992;8.856;2023-04-25T04:05:10;5.40;99.90
31207;DHT22;17834;52.992;8.856;2023-04-25T04:07:35;5.30;99.90
31207;DHT22;17834;52.992;8.856;2023-04-25T04:10:06;5.30;99.90
31207;DHT22;17834;52.992;8.856;2023-04-25T04:12:32;5.20;99.90
31207;DHT22;17834;52.992;8.856;2023-04-25T04:14:57;5.20;99.90
31207;DHT22;17834;52.992;8.856;2023-04-25T04:17:23;5.10;99.90
31207;DHT22;17834;52.992;8.856;2023-04-25T04:19:48;5.10;99.90
31207;DHT22;17834;52.992;8.856;2023-04-25T04:22:14;5.00;99.90
31207;DHT22;17834;52.992;8.856;2023-04-25T04:24:40;4.90;99.90
31207;DHT22;17834;52.992;8.856;2023-04-25T04:27:09;4.90;99.90
31207;DHT22;17834;52.992;8.856;2023-04-25T04:29:34;4.90;99.90
31207;DHT22;17834;52.992;8.856;2023-04-25T04:32:02;4.90;99.90
31207;DHT22;17834;52.992;8.856;2023-04-25T04:34:28;4.80;99.90
31207;DHT22;17834;52.992;8.856;2023-04-25T04:36:54;4.80;99.90
31207;DHT22;17834;52.992;8.856;2023-04-25T04:39:20;4.90;99.90
31207;DHT22;17834;52.992;8.856;2023-04-25T04:41:46;4.90;99.90
31207;DHT22;17834;52.992;8.856;2023-04-25T04:44:12;4.90;99.90
31207;DHT22;17834;52.992;8.856;2023-04-25T04:46:37;5.10;99.90
31207;DHT22;17834;52.992;8.856;2023-04-25T04:49:08;5.20;99.90
31207;DHT22;17834;52.992;8.856;2023-04-25T04:51:34;5.40;99.90
31207;DHT22;17834;52.992;8.856;2023-04-25T04:54:00;5.50;99.90
31207;DHT22;17834;52.992;8.856;2023-04-25T04:56:31;5.70;99.90
31207;DHT22;17834;52.992;8.856;2023-04-25T04:58:57;5.90;99.90
31207;DHT22;17834;52.992;8.856;2023-04-25T05:01:23;6.00;99.90
31207;DHT22;17834;52.992;8.856;2023-04-25T05:03:49;6.10;99.90
31207;DHT22;17834;52.992;8.856;2023-04-25T05:06:16;6.20;99.90
31207;DHT22;17834;52.992;8.856;2023-04-25T05:08:42;6.10;99.90
31207;DHT22;17834;52.992;8.856;2023-04-25T05:11:08;6.10;99.90
31207;DHT22;17834;52.992;8.856;2023-04-25T05:13:33;6.20;99.90
31207;DHT22;17834;52.992;8.856;2023-04-25T05:15:59;6.10;99.90
31207;DHT22;17834;52.992;8.856;2023-04-25T05:18:24;6.10;99.90
31207;DHT22;17834;52.992;8.856;2023-04-25T05:20:50;6.20;99.90
31207;DHT22;17834;52.992;8.856;2023-04-25T05:23:15;6.30;99.90
31207;DHT22;17834;52.992;8.856;2023-04-25T05:25:41;6.30;99.90
31207;DHT22;17834;52.992;8.856;2023-04-25T05:28:07;6.40;99.90
31207;DHT22;17834;52.992;8.856;2023-04-25T05:30:34;6.50;99.90
31207;DHT22;17834;52.992;8.856;2023-04-25T05:33:00;6.60;99.90
31207;DHT22;17834;52.992;8.856;2023-04-25T05:35:26;6.70;99.90
31207;DHT22;17834;52.992;8.856;2023-04-25T05:37:51;6.80;99.90
31207;DHT22;17834;52.992;8.856;2023-04-25T05:40:17;6.90;99.90
31207;DHT22;17834;52.992;8.856;2023-04-25T05:42:42;7.00;99.90
31207;DHT22;17834;52.992;8.856;2023-04-25T05:45:08;7.10;99.90
31207;DHT22;17834;52.992;8.856;2023-04-25T05:47:34;7.20;99.90
31207;DHT22;17834;52.992;8.856;2023-04-25T05:49:59;7.30;99.90
31207;DHT22;17834;52.992;8.856;2023-04-25T05:52:25;7.50;99.90
31207;DHT22;17834;52.992;8.856;2023-04-25T05:54:50;7.90;99.90
31207;DHT22;17834;52.992;8.856;2023-04-25T05:57:23;9.20;99.90
31207;DHT22;17834;52.992;8.856;2023-04-25T05:59:49;10.30;99.90
31207;DHT22;17834;52.992;8.856;2023-04-25T06:02:15;11.50;99.90
31207;DHT22;17834;52.992;8.856;2023-04-25T06:04:41;11.70;97.30
31207;DHT22;17834;52.992;8.856;2023-04-25T06:07:06;11.70;97.90
31207;DHT22;17834;52.992;8.856;2023-04-25T06:09:32;12.10;96.90
31207;DHT22;17834;52.992;8.856;2023-04-25T06:11:58;12.90;95.30
31207;DHT22;17834;52.992;8.856;2023-04-25T06:14:23;13.60;91.30
31207;DHT22;17834;52.992;8.856;2023-04-25T06:16:49;13.50;86.50
31207;DHT22;17834;52.992;8.856;2023-04-25T06:19:14;13.30;87.90
31207;DHT22;17834;52.992;8.856;2023-04-25T06:21:41;13.10;88.20
31207;DHT22;17834;52.992;8.856;2023-04-25T06:24:07;12.60;87.40
31207;DHT22;17834;52.992;8.856;2023-04-25T06:26:32;12.40;90.20
31207;DHT22;17834;52.992;8.856;2023-04-25T06:28:58;13.40;90.10
31207;DHT22;17834;52.992;8.856;2023-04-25T06:31:23;14.50;81.60
31207;DHT22;17834;52.992;8.856;2023-04-25T06:33:49;15.10;74.50
31207;DHT22;17834;52.992;8.856;2023-04-25T06:36:15;15.20;72.70
31207;DHT22;17834;52.992;8.856;2023-04-25T06:38:40;15.30;71.50
31207;DHT22;17834;52.992;8.856;2023-04-25T06:41:06;14.60;71.90
31207;DHT22;17834;52.992;8.856;2023-04-25T06:43:31;14.00;72.30
31207;DHT22;17834;52.992;8.856;2023-04-25T06:45:59;13.30;75.50
31207;DHT22;17834;52.992;8.856;2023-04-25T06:48:26;12.70;77.10
31207;DHT22;17834;52.992;8.856;2023-04-25T06:50:52;12.30;80.80
31207;DHT22;17834;52.992;8.856;2023-04-25T06:53:17;12.10;78.50
31207;DHT22;17834;52.992;8.856;2023-04-25T06:55:44;11.70;83.20
31207;DHT22;17834;52.992;8.856;2023-04-25T06:58:09;11.70;84.40
31207;DHT22;17834;52.992;8.856;2023-04-25T07:00:35;12.00;82.90
31207;DHT22;17834;52.992;8.856;2023-04-25T07:03:01;12.10;81.20
31207;DHT22;17834;52.992;8.856;2023-04-25T07:05:27;11.50;82.50
31207;DHT22;17834;52.992;8.856;2023-04-25T07:07:53;11.10;84.00
31207;DHT22;17834;52.992;8.856;2023-04-25T07:10:18;10.80;85.80
31207;DHT22;17834;52.992;8.856;2023-04-25T07:12:44;10.60;87.90
31207;DHT22;17834;52.992;8.856;2023-04-25T07:15:10;10.20;88.00
31207;DHT22;17834;52.992;8.856;2023-04-25T07:17:37;10.30;90.50
31207;DHT22;17834;52.992;8.856;2023-04-25T07:20:03;10.30;91.30
31207;DHT22;17834;52.992;8.856;2023-04-25T07:22:29;10.10;91.80
31207;DHT22;17834;52.992;8.856;2023-04-25T07:24:55;9.90;92.00
31207;DHT22;17834;52.992;8.856;2023-04-25T07:27:20;9.60;92.40
31207;DHT22;17834;52.992;8.856;2023-04-25T07:29:46;9.60;94.70
31207;DHT22;17834;52.992;8.856;2023-04-25T07:32:11;9.60;96.50
31207;DHT22;17834;52.992;8.856;2023-04-25T07:34:38;9.80;94.90
31207;DHT22;17834;52.992;8.856;2023-04-25T07:37:04;10.70;93.00
31207;DHT22;17834;52.992;8.856;2023-04-25T07:39:30;10.90;92.40
31207;DHT22;17834;52.992;8.856;2023-04-25T07:41:56;10.70;93.80
31207;DHT22;17834;52.992;8.856;2023-04-25T07:44:24;10.40;92.40
31207;DHT22;17834;52.992;8.856;2023-04-25T07:46:49;10.00;93.60
31207;DHT22;17834;52.992;8.856;2023-04-25T07:49:15;9.60;93.70
31207;DHT22;17834;52.992;8.856;2023-04-25T07:51:41;9.50;93.40
31207;DHT22;17834;52.992;8.856;2023-04-25T07:54:09;9.60;94.90
31207;DHT22;17834;52.992;8.856;2023-04-25T07:56:34;9.60;95.10
31207;DHT22;17834;52.992;8.856;2023-04-25T07:59:00;9.70;95.20
31207;DHT22;17834;52.992;8.856;2023-04-25T08:01:26;9.80;96.50
31207;DHT22;17834;52.992;8.856;2023-04-25T08:03:52;10.00;98.00
31207;DHT22;17834;52.992;8.856;2023-04-25T08:06:18;10.00;96.90
31207;DHT22;17834;52.992;8.856;2023-04-25T08:08:43;10.10;96.00
31207;DHT22;17834;52.992;8.856;2023-04-25T08:11:09;10.40;94.90
31207;DHT22;17834;52.992;8.856;2023-04-25T08:13:35;10.60;94.00
31207;DHT22;17834;52.992;8.856;2023-04-25T08:16:01;10.50;92.50
31207;DHT22;17834;52.992;8.856;2023-04-25T08:18:27;10.80;92.60
31207;DHT22;17834;52.992;8.856;2023-04-25T08:20:52;10.90;87.80
31207;DHT22;17834;52.992;8.856;2023-04-25T08:23:18;10.60;88.80
31207;DHT22;17834;52.992;8.856;2023-04-25T08:25:43;10.80;89.60
31207;DHT22;17834;52.992;8.856;2023-04-25T08:28:09;10.70;88.70
31207;DHT22;17834;52.992;8.856;2023-04-25T08:30:35;10.40;88.60
31207;DHT22;17834;52.992;8.856;2023-04-25T08:33:00;10.40;90.60
31207;DHT22;17834;52.992;8.856;2023-04-25T08:35:26;10.20;90.70
31207;DHT22;17834;52.992;8.856;2023-04-25T08:37:51;9.90;92.40
31207;DHT22;17834;52.992;8.856;2023-04-25T08:40:19;9.60;94.80
31207;DHT22;17834;52.992;8.856;2023-04-25T08:42:53;9.00;96.10
31207;DHT22;17834;52.992;8.856;2023-04-25T08:45:19;8.20;99.90
31207;DHT22;17834;52.992;8.856;2023-04-25T08:47:45;7.80;99.90
31207;DHT22;17834;52.992;8.856;2023-04-25T08:50:14;7.40;99.90
31207;DHT22;17834;52.992;8.856;2023-04-25T08:52:44;7.30;99.90
31207;DHT22;17834;52.992;8.856;2023-04-25T08:55:12;7.50;99.90
31207;DHT22;17834;52.992;8.856;2023-04-25T08:57:39;7.60;99.90
31207;DHT22;17834;52.992;8.856;2023-04-25T09:00:06;7.80;99.90
31207;DHT22;17834;52.992;8.856;2023-04-25T09:02:33;8.30;99.90
31207;DHT22;17834;52.992;8.856;2023-04-25T09:04:59;8.80;99.90
31207;DHT22;17834;52.992;8.856;2023-04-25T09:07:25;9.00;99.90
31207;DHT22;17834;52.992;8.856;2023-04-25T09:09:51;9.30;99.90
31207;DHT22;17834;52.992;8.856;2023-04-25T09:12:18;9.50;99.90
31207;DHT22;17834;52.992;8.856;2023-04-25T09:15:04;9.60;99.90
31207;DHT22;17834;52.992;8.856;2023-04-25T09:17:30;9.90;99.90
31207;DHT22;17834;52.992;8.856;2023-04-25T09:20:14;9.80;99.90
31207;DHT22;17834;52.992;8.856;2023-04-25T09:22:40;9.70;99.90
31207;DHT22;17834;52.992;8.856;2023-04-25T09:25:10;9.80;99.90
31207;DHT22;17834;52.992;8.856;2023-04-25T09:27:36;10.10;99.90
31207;DHT22;17834;52.992;8.856;2023-04-25T09:30:15;10.10;99.70
31207;DHT22;17834;52.992;8.856;2023-04-25T09:32:43;10.50;99.10
31207;DHT22;17834;52.992;8.856;2023-04-25T09:35:08;10.80;99.80
31207;DHT22;17834;52.992;8.856;2023-04-25T09:37:34;11.00;96.90
31207;DHT22;17834;52.992;8.856;2023-04-25T09:40:05;11.20;97.20
31207;DHT22;17834;52.992;8.856;2023-04-25T09:42:31;11.30;96.80
31207;DHT22;17834;52.992;8.856;2023-04-25T09:44:58;11.40;96.40
31207;DHT22;17834;52.992;8.856;2023-04-25T09:47:25;11.50;95.50
31207;DHT22;17834;52.992;8.856;2023-04-25T09:49:52;11.10;96.40
31207;DHT22;17834;52.992;8.856;2023-04-25T09:52:20;10.90;97.90
31207;DHT22;17834;52.992;8.856;2023-04-25T09:54:46;11.00;99.30
31207;DHT22;17834;52.992;8.856;2023-04-25T09:57:21;11.20;99.80
31207;DHT22;17834;52.992;8.856;2023-04-25T09:59:52;11.30;99.00
31207;DHT22;17834;52.992;8.856;2023-04-25T10:02:19;11.40;98.80
31207;DHT22;17834;52.992;8.856;2023-04-25T10:04:50;11.10;99.00
31207;DHT22;17834;52.992;8.856;2023-04-25T10:07:18;10.90;97.40
31207;DHT22;17834;52.992;8.856;2023-04-25T10:09:47;10.70;97.50
31207;DHT22;17834;52.992;8.856;2023-04-25T10:12:15;10.70;97.80
31207;DHT22;17834;52.992;8.856;2023-04-25T10:14:42;10.60;97.20
31207;DHT22;17834;52.992;8.856;2023-04-25T10:17:10;10.60;97.20
31207;DHT22;17834;52.992;8.856;2023-04-25T10:19:37;10.70;96.70
31207;DHT22;17834;52.992;8.856;2023-04-25T10:22:35;10.60;96.70
31207;DHT22;17834;52.992;8.856;2023-04-25T10:24:59;10.70;97.20
31207;DHT22;17834;52.992;8.856;2023-04-25T10:27:27;10.60;96.60
31207;DHT22;17834;52.992;8.856;2023-04-25T10:30:08;10.80;96.90
31207;DHT22;17834;52.992;8.856;2023-04-25T10:32:38;11.00;95.50
31207;DHT22;17834;52.992;8.856;2023-04-25T10:35:30;10.90;96.00
31207;DHT22;17834;52.992;8.856;2023-04-25T10:40:26;9.80;98.20
31207;DHT22;17834;52.992;8.856;2023-04-25T10:42:53;9.10;99.90
31207;DHT22;17834;52.992;8.856;2023-04-25T10:45:20;8.80;99.90
31207;DHT22;17834;52.992;8.856;2023-04-25T10:47:45;8.60;99.90
31207;DHT22;17834;52.992;8.856;2023-04-25T10:50:14;8.80;99.90
31207;DHT22;17834;52.992;8.856;2023-04-25T10:52:41;8.90;99.90
31207;DHT22;17834;52.992;8.856;2023-04-25T10:55:07;9.20;99.90
31207;DHT22;17834;52.992;8.856;2023-04-25T10:57:37;9.30;99.90
31207;DHT22;17834;52.992;8.856;2023-04-25T11:00:07;9.50;99.90
31207;DHT22;17834;52.992;8.856;2023-04-25T11:05:32;10.00;99.90
31207;DHT22;17834;52.992;8.856;2023-04-25T11:07:58;9.90;99.90
31207;DHT22;17834;52.992;8.856;2023-04-25T11:10:32;10.10;99.90
31207;DHT22;17834;52.992;8.856;2023-04-25T11:12:58;10.00;99.90
31207;DHT22;17834;52.992;8.856;2023-04-25T11:15:25;9.90;99.90
31207;DHT22;17834;52.992;8.856;2023-04-25T11:17:51;10.10;99.90
31207;DHT22;17834;52.992;8.856;2023-04-25T11:20:17;10.20;99.90
31207;DHT22;17834;52.992;8.856;2023-04-25T11:22:45;10.30;99.90
31207;DHT22;17834;52.992;8.856;2023-04-25T11:25:13;10.50;99.90
31207;DHT22;17834;52.992;8.856;2023-04-25T11:27:56;10.60;99.90
31207;DHT22;17834;52.992;8.856;2023-04-25T11:30:24;10.40;99.90
31207;DHT22;17834;52.992;8.856;2023-04-25T11:32:50;10.60;99.90
31207;DHT22;17834;52.992;8.856;2023-04-25T11:35:17;10.80;99.90
31207;DHT22;17834;52.992;8.856;2023-04-25T11:37:44;11.00;99.00
31207;DHT22;17834;52.992;8.856;2023-04-25T11:40:10;11.20;98.30
31207;DHT22;17834;52.992;8.856;2023-04-25T11:42:44;11.60;97.40
31207;DHT22;17834;52.992;8.856;2023-04-25T11:45:09;11.50;96.40
31207;DHT22;17834;52.992;8.856;2023-04-25T11:47:36;10.50;99.90
31207;DHT22;17834;52.992;8.856;2023-04-25T11:50:04;9.80;99.90
31207;DHT22;17834;52.992;8.856;2023-04-25T11:52:41;9.00;99.90
31207;DHT22;17834;52.992;8.856;2023-04-25T11:55:19;8.30;99.90
31207;DHT22;17834;52.992;8.856;2023-04-25T11:57:47;7.80;99.90
31207;DHT22;17834;52.992;8.856;2023-04-25T12:00:16;7.60;99.90
31207;DHT22;17834;52.992;8.856;2023-04-25T12:02:45;7.50;99.90
31207;DHT22;17834;52.992;8.856;2023-04-25T12:05:12;7.80;99.90
31207;DHT22;17834;52.992;8.856;2023-04-25T12:07:38;7.80;99.90
31207;DHT22;17834;52.992;8.856;2023-04-25T12:10:14;7.90;99.90
31207;DHT22;17834;52.992;8.856;2023-04-25T12:12:45;8.10;99.90
31207;DHT22;17834;52.992;8.856;2023-04-25T12:15:13;8.00;99.90
31207;DHT22;17834;52.992;8.856;2023-04-25T12:17:41;8.00;99.90
31207;DHT22;17834;52.992;8.856;2023-04-25T12:20:09;8.10;99.90
31207;DHT22;17834;52.992;8.856;2023-04-25T12:22:34;8.30;99.90
31207;DHT22;17834;52.992;8.856;2023-04-25T12:25:02;8.60;99.90
31207;DHT22;17834;52.992;8.856;2023-04-25T12:27:30;8.70;99.90
31207;DHT22;17834;52.992;8.856;2023-04-25T12:29:57;8.80;99.90
31207;DHT22;17834;52.992;8.856;2023-04-25T12:32:23;9.20;99.90
31207;DHT22;17834;52.992;8.856;2023-04-25T12:34:49;9.30;99.90
31207;DHT22;17834;52.992;8.856;2023-04-25T12:37:15;9.30;99.90
31207;DHT22;17834;52.992;8.856;2023-04-25T12:39:41;9.40;99.90
31207;DHT22;17834;52.992;8.856;2023-04-25T12:42:06;9.30;99.90
31207;DHT22;17834;52.992;8.856;2023-04-25T12:44:37;8.90;99.90
31207;DHT22;17834;52.992;8.856;2023-04-25T12:47:03;8.60;99.90
31207;DHT22;17834;52.992;8.856;2023-04-25T12:49:29;8.70;99.90
31207;DHT22;17834;52.992;8.856;2023-04-25T12:51:54;8.70;99.90
31207;DHT22;17834;52.992;8.856;2023-04-25T12:54:20;8.70;99.90
31207;DHT22;17834;52.992;8.856;2023-04-25T12:56:46;8.90;99.90
31207;DHT22;17834;52.992;8.856;2023-04-25T12:59:12;9.00;99.90
31207;DHT22;17834;52.992;8.856;2023-04-25T13:01:38;9.20;99.90
31207;DHT22;17834;52.992;8.856;2023-04-25T13:04:03;9.30;99.90
31207;DHT22;17834;52.992;8.856;2023-04-25T13:06:29;9.40;99.90
31207;DHT22;17834;52.992;8.856;2023-04-25T13:08:56;9.50;99.90
31207;DHT22;17834;52.992;8.856;2023-04-25T13:11:21;9.60;99.90
31207;DHT22;17834;52.992;8.856;2023-04-25T13:13:47;9.80;99.90
31207;DHT22;17834;52.992;8.856;2023-04-25T13:16:13;10.00;99.90
31207;DHT22;17834;52.992;8.856;2023-04-25T13:18:39;10.20;99.90
31207;DHT22;17834;52.992;8.856;2023-04-25T13:21:05;10.20;99.90
31207;DHT22;17834;52.992;8.856;2023-04-25T13:23:31;9.80;99.90
31207;DHT22;17834;52.992;8.856;2023-04-25T13:25:57;9.40;99.90
31207;DHT22;17834;52.992;8.856;2023-04-25T13:28:26;8.90;99.90
31207;DHT22;17834;52.992;8.856;2023-04-25T13:30:52;8.60;99.90
31207;DHT22;17834;52.992;8.856;2023-04-25T13:33:18;8.20;99.90
31207;DHT22;17834;52.992;8.856;2023-04-25T13:35:44;7.90;99.90
31207;DHT22;17834;52.992;8.856;2023-04-25T13:38:12;7.90;99.90
31207;DHT22;17834;52.992;8.856;2023-04-25T13:40:38;7.80;99.90
31207;DHT22;17834;52.992;8.856;2023-04-25T13:43:04;7.80;99.90
31207;DHT22;17834;52.992;8.856;2023-04-25T13:45:31;7.70;99.90
31207;DHT22;17834;52.992;8.856;2023-04-25T13:47:57;7.70;99.90
31207;DHT22;17834;52.992;8.856;2023-04-25T13:50:23;7.80;99.90
31207;DHT22;17834;52.992;8.856;2023-04-25T13:52:48;8.10;99.90
31207;DHT22;17834;52.992;8.856;2023-04-25T13:55:14;8.10;99.90
31207;DHT22;17834;52.992;8.856;2023-04-25T13:57:40;8.10;99.90
31207;DHT22;17834;52.992;8.856;2023-04-25T14:00:06;8.30;99.90
31207;DHT22;17834;52.992;8.856;2023-04-25T14:02:34;8.30;99.90
31207;DHT22;17834;52.992;8.856;2023-04-25T14:05:00;8.40;99.90
31207;DHT22;17834;52.992;8.856;2023-04-25T14:07:26;8.40;99.90
31207;DHT22;17834;52.992;8.856;2023-04-25T14:09:52;8.50;99.90
31207;DHT22;17834;52.992;8.856;2023-04-25T14:12:17;8.70;99.90
31207;DHT22;17834;52.992;8.856;2023-04-25T14:14:43;9.00;99.90
31207;DHT22;17834;52.992;8.856;2023-04-25T14:17:09;9.30;99.90
31207;DHT22;17834;52.992;8.856;2023-04-25T14:19:35;9.60;99.90
31207;DHT22;17834;52.992;8.856;2023-04-25T14:22:01;9.90;98.90
31207;DHT22;17834;52.992;8.856;2023-04-25T14:24:26;9.90;99.90
31207;DHT22;17834;52.992;8.856;2023-04-25T14:26:52;9.90;99.90
31207;DHT22;17834;52.992;8.856;2023-04-25T14:29:17;9.50;99.90
31207;DHT22;17834;52.992;8.856;2023-04-25T14:31:43;9.40;99.90
31207;DHT22;17834;52.992;8.856;2023-04-25T14:34:08;9.20;99.90
31207;DHT22;17834;52.992;8.856;2023-04-25T14:36:35;9.20;99.90
31207;DHT22;17834;52.992;8.856;2023-04-25T14:39:01;9.10;99.90
31207;DHT22;17834;52.992;8.856;2023-04-25T14:41:27;9.10;99.90
31207;DHT22;17834;52.992;8.856;2023-04-25T14:43:53;9.00;99.90
31207;DHT22;17834;52.992;8.856;2023-04-25T14:46:22;8.80;99.90
31207;DHT22;17834;52.992;8.856;2023-04-25T14:48:48;8.70;99.90
31207;DHT22;17834;52.992;8.856;2023-04-25T14:51:14;8.50;99.90
31207;DHT22;17834;52.992;8.856;2023-04-25T14:53:41;8.30;99.90
31207;DHT22;17834;52.992;8.856;2023-04-25T14:56:06;8.10;99.90
31207;DHT22;17834;52.992;8.856;2023-04-25T14:58:32;8.00;99.90
31207;DHT22;17834;52.992;8.856;2023-04-25T15:00:59;7.70;99.90
31207;DHT22;17834;52.992;8.856;2023-04-25T15:03:24;7.70;99.90
31207;DHT22;17834;52.992;8.856;2023-04-25T15:05:50;7.80;99.90
31207;DHT22;17834;52.992;8.856;2023-04-25T15:08:16;8.10;99.90
31207;DHT22;17834;52.992;8.856;2023-04-25T15:10:41;8.50;99.90
31207;DHT22;17834;52.992;8.856;2023-04-25T15:13:07;8.80;99.90
31207;DHT22;17834;52.992;8.856;2023-04-25T15:15:33;9.10;99.90
31207;DHT22;17834;52.992;8.856;2023-04-25T15:17:58;9.30;99.90
31207;DHT22;17834;52.992;8.856;2023-04-25T15:20:24;9.60;99.90
31207;DHT22;17834;52.992;8.856;2023-04-25T15:22:50;9.70;99.90
31207;DHT22;17834;52.992;8.856;2023-04-25T15:25:16;9.60;99.90
31207;DHT22;17834;52.992;8.856;2023-04-25T15:27:45;9.30;99.90
31207;DHT22;17834;52.992;8.856;2023-04-25T15:30:14;9.00;99.90
31207;DHT22;17834;52.992;8.856;2023-04-25T15:32:44;8.80;99.90
31207;DHT22;17834;52.992;8.856;2023-04-25T15:35:10;8.50;99.90
31207;DHT22;17834;52.992;8.856;2023-04-25T15:37:36;8.50;99.90
31207;DHT22;17834;52.992;8.856;2023-04-25T15:40:05;8.60;99.90
31207;DHT22;17834;52.992;8.856;2023-04-25T15:42:38;8.80;99.90
31207;DHT22;17834;52.992;8.856;2023-04-25T15:45:05;8.90;99.90